sensor_id;sensor_type;location;lat;lon;timestamp;P1;durP1;ratioP1;P2;durP2;ratioP2
78346;SDS011;67803;41.330;69.282;2024-01-30T00:01:39;27.58;;;10.75;;
78346;SDS011;67803;41.330;69.282;2024-01-30T00:04:10;26.13;;;11.38;;
78346;SDS011;67803;41.330;69.282;2024-01-30T00:06:40;22.88;;;10.07;;
78346;SDS011;67803;41.330;69.282;2024-01-30T00:09:11;21.40;;;10.32;;
78346;SDS011;67803;41.330;69.282;2024-01-30T00:11:42;23.67;;;10.18;;
78346;SDS011;67803;41.330;69.282;2024-01-30T00:14:12;23.75;;;10.13;;
78346;SDS011;67803;41.330;69.282;2024-01-30T00:16:43;21.80;;;9.25;;
78346;SDS011;67803;41.330;69.282;2024-01-30T00:19:13;29.73;;;10.75;;
78346;SDS011;67803;41.330;69.282;2024-01-30T00:21:44;23.55;;;9.60;;
78346;SDS011;67803;41.330;69.282;2024-01-30T00:24:14;23.20;;;10.13;;
78346;SDS011;67803;41.330;69.282;2024-01-30T00:26:45;20.75;;;9.77;;
78346;SDS011;67803;41.330;69.282;2024-01-30T00:29:15;19.00;;;9.20;;
78346;SDS011;67803;41.330;69.282;2024-01-30T00:31:49;20.60;;;8.80;;
78346;SDS011;67803;41.330;69.282;2024-01-30T00:34:20;19.85;;;8.52;;
78346;SDS011;67803;41.330;69.282;2024-01-30T00:36:51;21.25;;;9.35;;
78346;SDS011;67803;41.330;69.282;2024-01-30T00:39:21;21.90;;;8.98;;
78346;SDS011;67803;41.330;69.282;2024-01-30T00:41:52;22.77;;;9.68;;
78346;SDS011;67803;41.330;69.282;2024-01-30T00:44:22;21.60;;;8.77;;
78346;SDS011;67803;41.330;69.282;2024-01-30T00:46:53;21.50;;;9.65;;
78346;SDS011;67803;41.330;69.282;2024-01-30T00:49:24;20.33;;;9.65;;
78346;SDS011;67803;41.330;69.282;2024-01-30T00:51:54;19.38;;;8.48;;
78346;SDS011;67803;41.330;69.282;2024-01-30T00:54:25;20.27;;;8.23;;
78346;SDS011;67803;41.330;69.282;2024-01-30T00:56:55;21.20;;;8.98;;
78346;SDS011;67803;41.330;69.282;2024-01-30T00:59:27;20.63;;;9.13;;
78346;SDS011;67803;41.330;69.282;2024-01-30T01:01:57;20.23;;;7.70;;
78346;SDS011;67803;41.330;69.282;2024-01-30T01:04:28;19.88;;;9.25;;
78346;SDS011;67803;41.330;69.282;2024-01-30T01:06:58;19.88;;;8.95;;
78346;SDS011;67803;41.330;69.282;2024-01-30T01:09:29;19.13;;;8.05;;
78346;SDS011;67803;41.330;69.282;2024-01-30T01:11:59;23.10;;;10.35;;
78346;SDS011;67803;41.330;69.282;2024-01-30T01:14:30;21.63;;;8.68;;
78346;SDS011;67803;41.330;69.282;2024-01-30T01:17:01;18.75;;;8.60;;
78346;SDS011;67803;41.330;69.282;2024-01-30T01:19:31;20.30;;;9.65;;
78346;SDS011;67803;41.330;69.282;2024-01-30T01:22:02;18.02;;;8.15;;
78346;SDS011;67803;41.330;69.282;2024-01-30T01:24:33;20.38;;;8.57;;
78346;SDS011;67803;41.330;69.282;2024-01-30T01:27:04;19.50;;;8.75;;
78346;SDS011;67803;41.330;69.282;2024-01-30T01:29:36;19.13;;;9.13;;
78346;SDS011;67803;41.330;69.282;2024-01-30T01:32:06;19.60;;;8.32;;
78346;SDS011;67803;41.330;69.282;2024-01-30T01:34:37;20.23;;;9.60;;
78346;SDS011;67803;41.330;69.282;2024-01-30T01:37:07;16.60;;;8.10;;
78346;SDS011;67803;41.330;69.282;2024-01-30T01:39:38;13.95;;;7.70;;
78346;SDS011;67803;41.330;69.282;2024-01-30T01:42:08;17.48;;;8.20;;
78346;SDS011;67803;41.330;69.282;2024-01-30T01:44:39;19.02;;;8.23;;
78346;SDS011;67803;41.330;69.282;2024-01-30T01:47:09;16.45;;;7.15;;
78346;SDS011;67803;41.330;69.282;2024-01-30T01:49:41;13.13;;;7.40;;
78346;SDS011;67803;41.330;69.282;2024-01-30T01:52:12;13.88;;;6.80;;
78346;SDS011;67803;41.330;69.282;2024-01-30T01:54:43;13.77;;;6.80;;
78346;SDS011;67803;41.330;69.282;2024-01-30T01:57:14;14.52;;;6.88;;
78346;SDS011;67803;41.330;69.282;2024-01-30T01:59:44;14.90;;;6.80;;
78346;SDS011;67803;41.330;69.282;2024-01-30T02:02:15;14.95;;;7.45;;
78346;SDS011;67803;41.330;69.282;2024-01-30T02:04:46;14.43;;;6.80;;
78346;SDS011;67803;41.330;69.282;2024-01-30T02:07:17;14.40;;;7.13;;
78346;SDS011;67803;41.330;69.282;2024-01-30T02:09:48;11.80;;;6.85;;
78346;SDS011;67803;41.330;69.282;2024-01-30T02:14:43;13.52;;;6.72;;
78346;SDS011;67803;41.330;69.282;2024-01-30T02:17:15;14.23;;;6.95;;
78346;SDS011;67803;41.330;69.282;2024-01-30T02:19:45;12.18;;;6.82;;
78346;SDS011;67803;41.330;69.282;2024-01-30T02:22:16;12.70;;;6.85;;
78346;SDS011;67803;41.330;69.282;2024-01-30T02:24:47;14.75;;;7.22;;
78346;SDS011;67803;41.330;69.282;2024-01-30T02:27:17;15.20;;;7.35;;
78346;SDS011;67803;41.330;69.282;2024-01-30T02:29:48;17.63;;;8.18;;
78346;SDS011;67803;41.330;69.282;2024-01-30T02:32:18;17.05;;;7.25;;
78346;SDS011;67803;41.330;69.282;2024-01-30T02:34:49;17.50;;;7.72;;
78346;SDS011;67803;41.330;69.282;2024-01-30T02:37:19;16.20;;;8.13;;
78346;SDS011;67803;41.330;69.282;2024-01-30T02:39:50;13.15;;;7.28;;
78346;SDS011;67803;41.330;69.282;2024-01-30T02:42:21;12.85;;;6.78;;
78346;SDS011;67803;41.330;69.282;2024-01-30T02:44:51;13.30;;;7.22;;
78346;SDS011;67803;41.330;69.282;2024-01-30T02:47:22;14.45;;;7.10;;
78346;SDS011;67803;41.330;69.282;2024-01-30T02:49:52;20.30;;;11.43;;
78346;SDS011;67803;41.330;69.282;2024-01-30T02:52:23;12.73;;;6.40;;
78346;SDS011;67803;41.330;69.282;2024-01-30T02:54:54;10.35;;;5.78;;
78346;SDS011;67803;41.330;69.282;2024-01-30T02:57:24;12.73;;;6.38;;
78346;SDS011;67803;41.330;69.282;2024-01-30T02:59:55;12.75;;;6.22;;
78346;SDS011;67803;41.330;69.282;2024-01-30T03:02:25;13.05;;;7.05;;
78346;SDS011;67803;41.330;69.282;2024-01-30T03:04:56;12.73;;;6.72;;
78346;SDS011;67803;41.330;69.282;2024-01-30T03:07:26;13.65;;;7.22;;
78346;SDS011;67803;41.330;69.282;2024-01-30T03:09:57;11.57;;;6.28;;
78346;SDS011;67803;41.330;69.282;2024-01-30T03:12:27;10.73;;;6.43;;
78346;SDS011;67803;41.330;69.282;2024-01-30T03:14:58;12.98;;;6.13;;
78346;SDS011;67803;41.330;69.282;2024-01-30T03:17:28;12.95;;;6.70;;
78346;SDS011;67803;41.330;69.282;2024-01-30T03:19:59;16.08;;;7.72;;
78346;SDS011;67803;41.330;69.282;2024-01-30T03:22:30;11.93;;;6.80;;
78346;SDS011;67803;41.330;69.282;2024-01-30T03:25:00;15.18;;;7.38;;
78346;SDS011;67803;41.330;69.282;2024-01-30T03:27:31;15.80;;;7.88;;
78346;SDS011;67803;41.330;69.282;2024-01-30T03:30:01;12.75;;;7.28;;
78346;SDS011;67803;41.330;69.282;2024-01-30T03:32:32;15.13;;;8.68;;
78346;SDS011;67803;41.330;69.282;2024-01-30T03:35:02;14.35;;;8.45;;
78346;SDS011;67803;41.330;69.282;2024-01-30T03:37:34;15.23;;;8.30;;
78346;SDS011;67803;41.330;69.282;2024-01-30T03:40:04;16.52;;;8.98;;
78346;SDS011;67803;41.330;69.282;2024-01-30T03:42:35;18.52;;;10.30;;
78346;SDS011;67803;41.330;69.282;2024-01-30T03:45:06;17.95;;;9.35;;
78346;SDS011;67803;41.330;69.282;2024-01-30T03:47:36;17.27;;;9.63;;
78346;SDS011;67803;41.330;69.282;2024-01-30T03:50:07;17.17;;;10.10;;
78346;SDS011;67803;41.330;69.282;2024-01-30T03:52:38;14.98;;;9.23;;
78346;SDS011;67803;41.330;69.282;2024-01-30T03:55:09;14.70;;;8.98;;
78346;SDS011;67803;41.330;69.282;2024-01-30T03:57:39;12.45;;;7.43;;
78346;SDS011;67803;41.330;69.282;2024-01-30T04:00:10;14.48;;;6.85;;
78346;SDS011;67803;41.330;69.282;2024-01-30T04:02:41;13.95;;;7.15;;
78346;SDS011;67803;41.330;69.282;2024-01-30T04:05:11;11.25;;;6.45;;
78346;SDS011;67803;41.330;69.282;2024-01-30T04:07:42;13.10;;;7.50;;
78346;SDS011;67803;41.330;69.282;2024-01-30T04:10:13;10.40;;;5.80;;
78346;SDS011;67803;41.330;69.282;2024-01-30T04:12:43;14.60;;;7.22;;
78346;SDS011;67803;41.330;69.282;2024-01-30T04:15:14;11.15;;;5.97;;
78346;SDS011;67803;41.330;69.282;2024-01-30T04:17:44;13.77;;;6.43;;
78346;SDS011;67803;41.330;69.282;2024-01-30T04:20:15;14.60;;;6.10;;
78346;SDS011;67803;41.330;69.282;2024-01-30T04:22:46;11.02;;;6.65;;
78346;SDS011;67803;41.330;69.282;2024-01-30T04:25:17;11.65;;;6.22;;
78346;SDS011;67803;41.330;69.282;2024-01-30T04:27:48;13.50;;;6.93;;
78346;SDS011;67803;41.330;69.282;2024-01-30T04:30:18;12.82;;;7.38;;
78346;SDS011;67803;41.330;69.282;2024-01-30T04:32:49;13.82;;;7.53;;
78346;SDS011;67803;41.330;69.282;2024-01-30T04:35:19;15.45;;;8.48;;
78346;SDS011;67803;41.330;69.282;2024-01-30T04:37:53;18.58;;;9.20;;
78346;SDS011;67803;41.330;69.282;2024-01-30T04:40:24;19.45;;;10.43;;
78346;SDS011;67803;41.330;69.282;2024-01-30T04:42:54;24.58;;;12.82;;
78346;SDS011;67803;41.330;69.282;2024-01-30T04:45:25;21.17;;;10.82;;
78346;SDS011;67803;41.330;69.282;2024-01-30T04:47:55;20.45;;;11.27;;
78346;SDS011;67803;41.330;69.282;2024-01-30T04:50:27;21.48;;;10.93;;
78346;SDS011;67803;41.330;69.282;2024-01-30T04:52:58;16.60;;;9.70;;
78346;SDS011;67803;41.330;69.282;2024-01-30T04:55:28;18.23;;;8.95;;
78346;SDS011;67803;41.330;69.282;2024-01-30T04:57:59;18.55;;;10.02;;
78346;SDS011;67803;41.330;69.282;2024-01-30T05:00:29;17.00;;;8.88;;
78346;SDS011;67803;41.330;69.282;2024-01-30T05:03:00;15.25;;;8.52;;
78346;SDS011;67803;41.330;69.282;2024-01-30T05:05:31;13.95;;;7.40;;
78346;SDS011;67803;41.330;69.282;2024-01-30T05:08:01;12.40;;;7.45;;
78346;SDS011;67803;41.330;69.282;2024-01-30T05:10:32;13.48;;;8.10;;
78346;SDS011;67803;41.330;69.282;2024-01-30T05:13:02;18.85;;;8.32;;
78346;SDS011;67803;41.330;69.282;2024-01-30T05:15:33;15.50;;;8.65;;
78346;SDS011;67803;41.330;69.282;2024-01-30T05:18:03;13.77;;;7.07;;
78346;SDS011;67803;41.330;69.282;2024-01-30T05:20:34;14.48;;;8.25;;
78346;SDS011;67803;41.330;69.282;2024-01-30T05:23:05;14.47;;;7.50;;
78346;SDS011;67803;41.330;69.282;2024-01-30T05:25:35;14.27;;;7.78;;
78346;SDS011;67803;41.330;69.282;2024-01-30T05:28:06;15.85;;;8.98;;
78346;SDS011;67803;41.330;69.282;2024-01-30T05:30:36;16.13;;;8.68;;
78346;SDS011;67803;41.330;69.282;2024-01-30T05:33:07;17.50;;;9.18;;
78346;SDS011;67803;41.330;69.282;2024-01-30T05:35:38;12.75;;;8.75;;
78346;SDS011;67803;41.330;69.282;2024-01-30T05:38:08;16.48;;;8.05;;
78346;SDS011;67803;41.330;69.282;2024-01-30T05:40:39;13.07;;;7.57;;
78346;SDS011;67803;41.330;69.282;2024-01-30T05:43:09;14.35;;;7.20;;
78346;SDS011;67803;41.330;69.282;2024-01-30T05:45:40;14.25;;;7.63;;
78346;SDS011;67803;41.330;69.282;2024-01-30T05:48:11;14.25;;;7.22;;
78346;SDS011;67803;41.330;69.282;2024-01-30T05:50:41;14.00;;;7.18;;
78346;SDS011;67803;41.330;69.282;2024-01-30T05:53:12;12.85;;;7.57;;
78346;SDS011;67803;41.330;69.282;2024-01-30T05:55:42;14.55;;;7.13;;
78346;SDS011;67803;41.330;69.282;2024-01-30T05:58:13;14.32;;;7.95;;
78346;SDS011;67803;41.330;69.282;2024-01-30T06:00:44;13.90;;;8.00;;
78346;SDS011;67803;41.330;69.282;2024-01-30T06:03:14;13.52;;;7.68;;
78346;SDS011;67803;41.330;69.282;2024-01-30T06:05:45;13.63;;;7.90;;
78346;SDS011;67803;41.330;69.282;2024-01-30T06:08:15;14.95;;;8.57;;
78346;SDS011;67803;41.330;69.282;2024-01-30T06:10:46;14.25;;;8.25;;
78346;SDS011;67803;41.330;69.282;2024-01-30T06:13:17;14.50;;;7.78;;
78346;SDS011;67803;41.330;69.282;2024-01-30T06:15:48;16.40;;;8.75;;
78346;SDS011;67803;41.330;69.282;2024-01-30T06:18:18;16.10;;;8.50;;
78346;SDS011;67803;41.330;69.282;2024-01-30T06:20:50;17.75;;;8.55;;
78346;SDS011;67803;41.330;69.282;2024-01-30T06:23:21;16.15;;;8.63;;
78346;SDS011;67803;41.330;69.282;2024-01-30T06:25:51;14.40;;;8.75;;
78346;SDS011;67803;41.330;69.282;2024-01-30T06:28:22;13.02;;;7.68;;
78346;SDS011;67803;41.330;69.282;2024-01-30T06:30:53;12.93;;;7.80;;
78346;SDS011;67803;41.330;69.282;2024-01-30T06:33:23;16.52;;;7.18;;
78346;SDS011;67803;41.330;69.282;2024-01-30T06:35:54;13.38;;;7.65;;
78346;SDS011;67803;41.330;69.282;2024-01-30T06:38:24;9.85;;;6.38;;
78346;SDS011;67803;41.330;69.282;2024-01-30T06:40:55;11.55;;;7.32;;
78346;SDS011;67803;41.330;69.282;2024-01-30T06:43:25;16.05;;;8.65;;
78346;SDS011;67803;41.330;69.282;2024-01-30T06:45:56;13.30;;;7.47;;
78346;SDS011;67803;41.330;69.282;2024-01-30T06:48:26;16.00;;;8.20;;
78346;SDS011;67803;41.330;69.282;2024-01-30T06:50:57;15.85;;;8.57;;
78346;SDS011;67803;41.330;69.282;2024-01-30T06:53:28;17.40;;;9.23;;
78346;SDS011;67803;41.330;69.282;2024-01-30T06:55:58;16.50;;;8.20;;
78346;SDS011;67803;41.330;69.282;2024-01-30T06:58:29;17.15;;;8.80;;
78346;SDS011;67803;41.330;69.282;2024-01-30T07:01:00;13.10;;;8.18;;
78346;SDS011;67803;41.330;69.282;2024-01-30T07:03:31;14.02;;;8.07;;
78346;SDS011;67803;41.330;69.282;2024-01-30T07:06:01;16.63;;;8.73;;
78346;SDS011;67803;41.330;69.282;2024-01-30T07:08:32;14.82;;;8.65;;
78346;SDS011;67803;41.330;69.282;2024-01-30T07:11:03;20.85;;;9.30;;
78346;SDS011;67803;41.330;69.282;2024-01-30T07:13:34;16.70;;;8.93;;
78346;SDS011;67803;41.330;69.282;2024-01-30T07:16:04;16.77;;;9.25;;
78346;SDS011;67803;41.330;69.282;2024-01-30T07:18:35;15.98;;;9.10;;
78346;SDS011;67803;41.330;69.282;2024-01-30T07:21:06;18.33;;;8.90;;
78346;SDS011;67803;41.330;69.282;2024-01-30T07:23:36;15.52;;;9.05;;
78346;SDS011;67803;41.330;69.282;2024-01-30T07:26:09;15.98;;;8.43;;
78346;SDS011;67803;41.330;69.282;2024-01-30T07:28:39;16.20;;;8.00;;
78346;SDS011;67803;41.330;69.282;2024-01-30T07:31:10;14.10;;;7.88;;
78346;SDS011;67803;41.330;69.282;2024-01-30T07:33:40;15.25;;;8.02;;
78346;SDS011;67803;41.330;69.282;2024-01-30T07:36:11;13.30;;;7.38;;
78346;SDS011;67803;41.330;69.282;2024-01-30T07:38:41;12.07;;;7.47;;
78346;SDS011;67803;41.330;69.282;2024-01-30T07:41:12;14.15;;;7.65;;
78346;SDS011;67803;41.330;69.282;2024-01-30T07:43:43;14.05;;;7.32;;
78346;SDS011;67803;41.330;69.282;2024-01-30T07:46:14;11.75;;;6.97;;
78346;SDS011;67803;41.330;69.282;2024-01-30T07:48:44;12.50;;;7.97;;
78346;SDS011;67803;41.330;69.282;2024-01-30T07:51:15;11.32;;;6.50;;
78346;SDS011;67803;41.330;69.282;2024-01-30T07:53:45;12.57;;;6.93;;
78346;SDS011;67803;41.330;69.282;2024-01-30T07:56:16;11.43;;;6.05;;
78346;SDS011;67803;41.330;69.282;2024-01-30T07:58:47;11.70;;;6.18;;
78346;SDS011;67803;41.330;69.282;2024-01-30T08:01:18;12.45;;;6.40;;
78346;SDS011;67803;41.330;69.282;2024-01-30T08:03:49;10.52;;;6.35;;
78346;SDS011;67803;41.330;69.282;2024-01-30T08:06:19;11.55;;;6.40;;
78346;SDS011;67803;41.330;69.282;2024-01-30T08:08:50;11.85;;;6.10;;
78346;SDS011;67803;41.330;69.282;2024-01-30T08:11:23;12.48;;;6.60;;
78346;SDS011;67803;41.330;69.282;2024-01-30T08:13:56;13.52;;;6.78;;
78346;SDS011;67803;41.330;69.282;2024-01-30T08:16:26;11.45;;;6.55;;
78346;SDS011;67803;41.330;69.282;2024-01-30T08:18:57;12.10;;;6.60;;
78346;SDS011;67803;41.330;69.282;2024-01-30T08:21:28;12.43;;;7.13;;
78346;SDS011;67803;41.330;69.282;2024-01-30T08:23:58;14.85;;;6.82;;
78346;SDS011;67803;41.330;69.282;2024-01-30T08:26:29;13.45;;;7.00;;
78346;SDS011;67803;41.330;69.282;2024-01-30T08:28:59;11.88;;;7.07;;
78346;SDS011;67803;41.330;69.282;2024-01-30T08:31:30;13.85;;;6.68;;
78346;SDS011;67803;41.330;69.282;2024-01-30T08:34:01;11.85;;;6.38;;
78346;SDS011;67803;41.330;69.282;2024-01-30T08:37:53;13.10;;;6.80;;
78346;SDS011;67803;41.330;69.282;2024-01-30T08:40:24;11.13;;;6.93;;
78346;SDS011;67803;41.330;69.282;2024-01-30T08:42:55;11.98;;;6.63;;
78346;SDS011;67803;41.330;69.282;2024-01-30T08:45:25;12.35;;;7.47;;
78346;SDS011;67803;41.330;69.282;2024-01-30T08:47:56;14.57;;;6.10;;
78346;SDS011;67803;41.330;69.282;2024-01-30T08:50:26;14.20;;;6.53;;
78346;SDS011;67803;41.330;69.282;2024-01-30T08:52:57;13.35;;;6.63;;
78346;SDS011;67803;41.330;69.282;2024-01-30T08:55:28;13.82;;;6.63;;
78346;SDS011;67803;41.330;69.282;2024-01-30T08:57:58;15.00;;;8.88;;
78346;SDS011;67803;41.330;69.282;2024-01-30T09:00:29;12.65;;;7.18;;
78346;SDS011;67803;41.330;69.282;2024-01-30T09:03:00;13.80;;;7.00;;
78346;SDS011;67803;41.330;69.282;2024-01-30T09:05:30;14.80;;;7.35;;
78346;SDS011;67803;41.330;69.282;2024-01-30T09:08:01;12.50;;;6.82;;
78346;SDS011;67803;41.330;69.282;2024-01-30T09:10:31;16.67;;;8.48;;
78346;SDS011;67803;41.330;69.282;2024-01-30T09:13:02;14.90;;;8.63;;
78346;SDS011;67803;41.330;69.282;2024-01-30T09:15:33;13.82;;;7.43;;
78346;SDS011;67803;41.330;69.282;2024-01-30T09:18:03;16.77;;;8.88;;
78346;SDS011;67803;41.330;69.282;2024-01-30T09:20:34;18.48;;;10.57;;
78346;SDS011;67803;41.330;69.282;2024-01-30T09:23:05;19.00;;;11.10;;
78346;SDS011;67803;41.330;69.282;2024-01-30T09:25:35;19.25;;;11.30;;
78346;SDS011;67803;41.330;69.282;2024-01-30T09:28:06;17.63;;;10.52;;
78346;SDS011;67803;41.330;69.282;2024-01-30T09:30:37;20.42;;;11.27;;
78346;SDS011;67803;41.330;69.282;2024-01-30T09:33:07;18.02;;;10.55;;
78346;SDS011;67803;41.330;69.282;2024-01-30T09:35:38;22.10;;;10.85;;
78346;SDS011;67803;41.330;69.282;2024-01-30T09:38:08;19.65;;;11.95;;
78346;SDS011;67803;41.330;69.282;2024-01-30T09:40:39;21.67;;;10.45;;
78346;SDS011;67803;41.330;69.282;2024-01-30T09:43:13;20.20;;;11.13;;
78346;SDS011;67803;41.330;69.282;2024-01-30T09:45:46;18.60;;;10.73;;
78346;SDS011;67803;41.330;69.282;2024-01-30T09:48:17;19.55;;;11.55;;
78346;SDS011;67803;41.330;69.282;2024-01-30T09:50:47;19.17;;;10.20;;
78346;SDS011;67803;41.330;69.282;2024-01-30T09:53:18;19.13;;;10.68;;
78346;SDS011;67803;41.330;69.282;2024-01-30T09:55:50;19.70;;;11.18;;
78346;SDS011;67803;41.330;69.282;2024-01-30T09:58:21;15.60;;;9.95;;
78346;SDS011;67803;41.330;69.282;2024-01-30T10:00:52;18.83;;;10.52;;
78346;SDS011;67803;41.330;69.282;2024-01-30T10:03:24;18.00;;;11.68;;
78346;SDS011;67803;41.330;69.282;2024-01-30T10:05:55;20.73;;;10.82;;
78346;SDS011;67803;41.330;69.282;2024-01-30T10:08:26;17.40;;;10.32;;
78346;SDS011;67803;41.330;69.282;2024-01-30T10:10:57;18.90;;;11.70;;
78346;SDS011;67803;41.330;69.282;2024-01-30T10:13:27;19.08;;;11.90;;
78346;SDS011;67803;41.330;69.282;2024-01-30T10:15:58;20.33;;;12.18;;
78346;SDS011;67803;41.330;69.282;2024-01-30T10:18:28;17.08;;;10.13;;
78346;SDS011;67803;41.330;69.282;2024-01-30T10:20:59;20.75;;;11.88;;
78346;SDS011;67803;41.330;69.282;2024-01-30T10:23:29;20.48;;;10.32;;
78346;SDS011;67803;41.330;69.282;2024-01-30T10:26:02;17.17;;;10.77;;
78346;SDS011;67803;41.330;69.282;2024-01-30T10:28:33;20.05;;;11.32;;
78346;SDS011;67803;41.330;69.282;2024-01-30T10:31:03;21.10;;;12.45;;
78346;SDS011;67803;41.330;69.282;2024-01-30T10:33:34;20.13;;;12.00;;
78346;SDS011;67803;41.330;69.282;2024-01-30T10:36:05;19.42;;;11.50;;
78346;SDS011;67803;41.330;69.282;2024-01-30T10:38:36;21.55;;;12.18;;
78346;SDS011;67803;41.330;69.282;2024-01-30T10:41:07;18.58;;;11.90;;
78346;SDS011;67803;41.330;69.282;2024-01-30T10:43:40;20.95;;;11.50;;
78346;SDS011;67803;41.330;69.282;2024-01-30T10:46:20;17.50;;;11.18;;
78346;SDS011;67803;41.330;69.282;2024-01-30T10:48:58;22.80;;;12.40;;
78346;SDS011;67803;41.330;69.282;2024-01-30T10:51:29;22.08;;;12.20;;
78346;SDS011;67803;41.330;69.282;2024-01-30T10:53:59;19.30;;;11.35;;
78346;SDS011;67803;41.330;69.282;2024-01-30T10:56:30;21.50;;;11.27;;
78346;SDS011;67803;41.330;69.282;2024-01-30T10:59:03;24.17;;;13.82;;
78346;SDS011;67803;41.330;69.282;2024-01-30T11:01:34;23.55;;;11.48;;
78346;SDS011;67803;41.330;69.282;2024-01-30T11:04:05;17.60;;;10.45;;
78346;SDS011;67803;41.330;69.282;2024-01-30T11:06:41;17.30;;;10.95;;
78346;SDS011;67803;41.330;69.282;2024-01-30T11:09:12;19.33;;;11.75;;
78346;SDS011;67803;41.330;69.282;2024-01-30T11:11:55;19.50;;;12.13;;
78346;SDS011;67803;41.330;69.282;2024-01-30T11:14:30;19.90;;;10.95;;
78346;SDS011;67803;41.330;69.282;2024-01-30T11:17:00;18.85;;;10.27;;
78346;SDS011;67803;41.330;69.282;2024-01-30T11:19:32;18.75;;;10.43;;
78346;SDS011;67803;41.330;69.282;2024-01-30T11:22:03;16.38;;;10.30;;
78346;SDS011;67803;41.330;69.282;2024-01-30T11:24:40;21.50;;;10.40;;
78346;SDS011;67803;41.330;69.282;2024-01-30T11:27:14;19.10;;;11.50;;
78346;SDS011;67803;41.330;69.282;2024-01-30T11:29:49;18.83;;;11.32;;
78346;SDS011;67803;41.330;69.282;2024-01-30T11:32:23;22.13;;;10.63;;
78346;SDS011;67803;41.330;69.282;2024-01-30T11:34:56;17.38;;;11.18;;
78346;SDS011;67803;41.330;69.282;2024-01-30T11:37:28;19.20;;;10.48;;
78346;SDS011;67803;41.330;69.282;2024-01-30T11:39:59;19.55;;;10.75;;
78346;SDS011;67803;41.330;69.282;2024-01-30T11:42:29;16.48;;;10.10;;
78346;SDS011;67803;41.330;69.282;2024-01-30T11:45:00;22.25;;;10.27;;
78346;SDS011;67803;41.330;69.282;2024-01-30T11:47:34;15.50;;;9.02;;
78346;SDS011;67803;41.330;69.282;2024-01-30T11:50:05;20.73;;;11.82;;
78346;SDS011;67803;41.330;69.282;2024-01-30T11:52:36;18.20;;;10.35;;
78346;SDS011;67803;41.330;69.282;2024-01-30T11:55:07;17.95;;;9.52;;
78346;SDS011;67803;41.330;69.282;2024-01-30T11:57:38;18.65;;;10.55;;
78346;SDS011;67803;41.330;69.282;2024-01-30T12:00:15;18.45;;;10.85;;
78346;SDS011;67803;41.330;69.282;2024-01-30T12:02:53;16.75;;;10.02;;
78346;SDS011;67803;41.330;69.282;2024-01-30T12:05:27;19.25;;;11.77;;
78346;SDS011;67803;41.330;69.282;2024-01-30T12:07:58;14.80;;;9.15;;
78346;SDS011;67803;41.330;69.282;2024-01-30T12:10:29;19.02;;;11.07;;
78346;SDS011;67803;41.330;69.282;2024-01-30T12:13:00;16.80;;;9.38;;
78346;SDS011;67803;41.330;69.282;2024-01-30T12:15:31;16.40;;;10.30;;
78346;SDS011;67803;41.330;69.282;2024-01-30T12:18:06;15.05;;;9.27;;
78346;SDS011;67803;41.330;69.282;2024-01-30T12:20:37;18.10;;;9.55;;
78346;SDS011;67803;41.330;69.282;2024-01-30T12:23:07;14.50;;;9.68;;
78346;SDS011;67803;41.330;69.282;2024-01-30T12:25:38;17.15;;;9.43;;
78346;SDS011;67803;41.330;69.282;2024-01-30T12:28:08;16.73;;;9.77;;
78346;SDS011;67803;41.330;69.282;2024-01-30T12:30:39;17.48;;;9.43;;
78346;SDS011;67803;41.330;69.282;2024-01-30T12:33:15;15.60;;;9.80;;
78346;SDS011;67803;41.330;69.282;2024-01-30T12:35:46;15.15;;;8.73;;
78346;SDS011;67803;41.330;69.282;2024-01-30T12:38:18;14.68;;;7.93;;
78346;SDS011;67803;41.330;69.282;2024-01-30T12:40:49;18.13;;;9.90;;
78346;SDS011;67803;41.330;69.282;2024-01-30T12:43:19;20.08;;;10.10;;
78346;SDS011;67803;41.330;69.282;2024-01-30T12:45:50;19.55;;;10.32;;
78346;SDS011;67803;41.330;69.282;2024-01-30T12:48:22;19.70;;;10.57;;
78346;SDS011;67803;41.330;69.282;2024-01-30T12:50:53;21.52;;;10.98;;
78346;SDS011;67803;41.330;69.282;2024-01-30T12:53:24;24.05;;;12.40;;
78346;SDS011;67803;41.330;69.282;2024-01-30T12:55:54;23.05;;;12.27;;
78346;SDS011;67803;41.330;69.282;2024-01-30T12:58:25;22.83;;;12.18;;
78346;SDS011;67803;41.330;69.282;2024-01-30T13:00:55;19.92;;;11.32;;
78346;SDS011;67803;41.330;69.282;2024-01-30T13:03:26;18.13;;;10.43;;
78346;SDS011;67803;41.330;69.282;2024-01-30T13:05:57;19.83;;;11.20;;
78346;SDS011;67803;41.330;69.282;2024-01-30T13:08:27;21.02;;;11.90;;
78346;SDS011;67803;41.330;69.282;2024-01-30T13:10:58;18.77;;;11.00;;
78346;SDS011;67803;41.330;69.282;2024-01-30T13:13:28;21.58;;;12.02;;
78346;SDS011;67803;41.330;69.282;2024-01-30T13:15:59;18.40;;;11.40;;
78346;SDS011;67803;41.330;69.282;2024-01-30T13:18:29;20.40;;;11.65;;
78346;SDS011;67803;41.330;69.282;2024-01-30T13:21:00;22.63;;;12.68;;
78346;SDS011;67803;41.330;69.282;2024-01-30T13:23:30;26.30;;;13.90;;
78346;SDS011;67803;41.330;69.282;2024-01-30T13:26:01;24.00;;;12.38;;
78346;SDS011;67803;41.330;69.282;2024-01-30T13:28:32;21.27;;;12.93;;
78346;SDS011;67803;41.330;69.282;2024-01-30T13:31:03;23.02;;;13.40;;
78346;SDS011;67803;41.330;69.282;2024-01-30T13:33:35;24.58;;;13.38;;
78346;SDS011;67803;41.330;69.282;2024-01-30T13:36:09;21.90;;;11.05;;
78346;SDS011;67803;41.330;69.282;2024-01-30T13:38:40;22.95;;;13.30;;
78346;SDS011;67803;41.330;69.282;2024-01-30T13:41:11;19.70;;;12.82;;
78346;SDS011;67803;41.330;69.282;2024-01-30T13:43:43;23.45;;;12.30;;
78346;SDS011;67803;41.330;69.282;2024-01-30T13:46:14;21.88;;;12.95;;
78346;SDS011;67803;41.330;69.282;2024-01-30T13:48:45;23.25;;;11.40;;
78346;SDS011;67803;41.330;69.282;2024-01-30T13:51:15;24.45;;;12.45;;
78346;SDS011;67803;41.330;69.282;2024-01-30T13:53:47;23.08;;;12.05;;
78346;SDS011;67803;41.330;69.282;2024-01-30T13:56:18;23.20;;;12.23;;
78346;SDS011;67803;41.330;69.282;2024-01-30T13:58:49;28.25;;;13.75;;
78346;SDS011;67803;41.330;69.282;2024-01-30T14:01:22;26.20;;;14.13;;
78346;SDS011;67803;41.330;69.282;2024-01-30T14:03:54;27.05;;;13.32;;
78346;SDS011;67803;41.330;69.282;2024-01-30T14:06:24;26.77;;;13.55;;
78346;SDS011;67803;41.330;69.282;2024-01-30T14:08:55;31.83;;;15.05;;
78346;SDS011;67803;41.330;69.282;2024-01-30T14:11:26;24.90;;;12.57;;
78346;SDS011;67803;41.330;69.282;2024-01-30T14:13:56;32.03;;;12.77;;
78346;SDS011;67803;41.330;69.282;2024-01-30T14:16:27;23.15;;;11.88;;
78346;SDS011;67803;41.330;69.282;2024-01-30T14:18:58;25.42;;;12.38;;
78346;SDS011;67803;41.330;69.282;2024-01-30T14:21:29;22.38;;;10.43;;
78346;SDS011;67803;41.330;69.282;2024-01-30T14:24:00;18.52;;;9.93;;
78346;SDS011;67803;41.330;69.282;2024-01-30T14:26:30;21.10;;;10.35;;
78346;SDS011;67803;41.330;69.282;2024-01-30T14:29:01;20.50;;;9.80;;
78346;SDS011;67803;41.330;69.282;2024-01-30T14:31:31;17.58;;;9.60;;
78346;SDS011;67803;41.330;69.282;2024-01-30T14:34:02;18.52;;;9.60;;
78346;SDS011;67803;41.330;69.282;2024-01-30T14:36:33;21.70;;;9.68;;
78346;SDS011;67803;41.330;69.282;2024-01-30T14:39:03;20.55;;;9.82;;
78346;SDS011;67803;41.330;69.282;2024-01-30T14:41:34;22.08;;;10.75;;